createdAt,value
2024-04-24T00:01:25.684Z,6.00
2024-04-24T00:04:29.610Z,6.03
2024-04-24T00:07:33.555Z,5.72
2024-04-24T00:10:37.826Z,5.77
2024-04-24T00:13:41.406Z,5.32
2024-04-24T00:16:45.110Z,5.68
2024-04-24T00:19:48.716Z,5.77
2024-04-24T00:22:52.486Z,5.55
2024-04-24T00:25:57.697Z,5.50
2024-04-24T00:29:01.914Z,5.72
2024-04-24T00:32:07.230Z,5.47
2024-04-24T00:35:11.186Z,5.00
2024-04-24T00:38:14.908Z,6.93
2024-04-24T00:41:18.624Z,6.43
2024-04-24T00:44:22.549Z,6.25
2024-04-24T00:47:27.601Z,5.65
2024-04-24T00:50:32.428Z,7.17
2024-04-24T00:53:36.778Z,8.52
2024-04-24T00:56:40.633Z,8.45
2024-04-24T00:59:44.573Z,9.70
2024-04-24T01:02:49.075Z,7.50
2024-04-24T01:05:52.774Z,7.18
2024-04-24T01:08:56.440Z,6.28
2024-04-24T01:12:00.143Z,6.60
2024-04-24T01:15:03.945Z,7.13
2024-04-24T01:18:07.956Z,6.50
2024-04-24T01:21:13.395Z,5.60
2024-04-24T01:24:25.169Z,4.05
2024-04-24T01:27:28.865Z,3.83
2024-04-24T01:30:32.506Z,3.90
2024-04-24T01:33:36.190Z,4.70
2024-04-24T01:36:39.304Z,4.18
2024-04-24T01:39:42.946Z,3.63
2024-04-24T01:42:46.111Z,4.30
2024-04-24T01:45:49.750Z,4.63
2024-04-24T01:48:55.467Z,3.80
2024-04-24T01:51:59.161Z,4.10
2024-04-24T01:55:02.873Z,3.78
2024-04-24T01:58:07.114Z,3.78
2024-04-24T02:01:10.816Z,3.90
2024-04-24T02:04:14.674Z,3.88
2024-04-24T02:07:17.862Z,3.88
2024-04-24T02:10:21.508Z,4.25
2024-04-24T02:13:25.150Z,4.80
2024-04-24T02:16:28.821Z,4.90
2024-04-24T02:19:31.933Z,4.32
2024-04-24T02:22:37.860Z,4.73
2024-04-24T02:25:41.977Z,5.25
2024-04-24T02:28:45.609Z,4.82
2024-04-24T02:31:49.290Z,5.50
2024-04-24T02:34:52.911Z,6.35
2024-04-24T02:37:56.818Z,7.95
2024-04-24T02:41:18.787Z,8.73
2024-04-24T02:44:22.413Z,9.33
2024-04-24T02:47:26.215Z,9.45
2024-04-24T02:50:30.162Z,11.23
2024-04-24T02:53:33.733Z,11.30
2024-04-24T02:56:36.890Z,11.50
2024-04-24T02:59:41.518Z,10.75
2024-04-24T03:02:45.396Z,10.38
2024-04-24T03:05:48.557Z,9.55
2024-04-24T03:08:52.153Z,8.48
2024-04-24T03:11:55.745Z,7.72
2024-04-24T03:14:59.412Z,7.87
2024-04-24T03:18:03.277Z,7.68
2024-04-24T03:21:07.046Z,6.43
2024-04-24T03:24:10.641Z,7.07
2024-04-24T03:27:14.476Z,7.15
2024-04-24T03:30:17.501Z,5.88
2024-04-24T03:33:21.344Z,7.28
2024-04-24T03:36:25.035Z,7.55
2024-04-24T03:39:28.693Z,7.85
2024-04-24T03:42:34.253Z,8.63
2024-04-24T03:45:39.298Z,7.90
2024-04-24T03:48:42.502Z,6.65
2024-04-24T03:51:46.174Z,7.63
2024-04-24T03:54:49.678Z,7.17
2024-04-24T03:57:52.811Z,7.00
2024-04-24T04:00:55.863Z,7.25
2024-04-24T04:04:02.688Z,8.18
2024-04-24T04:07:07.120Z,7.72
2024-04-24T04:10:10.746Z,8.65
2024-04-24T04:13:15.307Z,8.43
2024-04-24T04:16:18.854Z,8.77
2024-04-24T04:19:21.808Z,8.80
2024-04-24T04:22:24.887Z,8.68
2024-04-24T04:25:31.642Z,8.83
2024-04-24T04:28:35.307Z,8.80
2024-04-24T04:31:38.913Z,9.13
2024-04-24T04:34:46.047Z,8.57
2024-04-24T04:37:49.138Z,8.63
2024-04-24T04:40:52.844Z,8.98
2024-04-24T04:43:57.657Z,8.10
2024-04-24T04:47:00.860Z,8.00
2024-04-24T04:50:04.894Z,8.77
2024-04-24T04:53:08.575Z,8.00
2024-04-24T04:56:12.230Z,9.23
2024-04-24T04:59:16.009Z,12.57
2024-04-24T05:02:19.693Z,10.68
2024-04-24T05:05:25.079Z,8.43
2024-04-24T05:08:28.734Z,8.35
2024-04-24T05:11:32.527Z,9.07
2024-04-24T05:14:36.252Z,8.35
2024-04-24T05:17:40.210Z,7.80
2024-04-24T05:20:43.993Z,8.35
2024-04-24T05:23:52.812Z,7.38
2024-04-24T05:27:16.362Z,7.80
2024-04-24T05:30:20.020Z,7.22
2024-04-24T05:33:23.713Z,7.13
2024-04-24T05:36:27.375Z,7.47
2024-04-24T05:39:31.006Z,8.27
2024-04-24T05:42:34.768Z,8.18
2024-04-24T05:45:38.418Z,6.78
2024-04-24T05:48:41.869Z,7.13
2024-04-24T05:51:45.554Z,7.30
2024-04-24T05:54:49.216Z,7.35
2024-04-24T05:57:53.059Z,7.97
2024-04-24T06:00:56.251Z,7.32
2024-04-24T06:03:59.974Z,8.20
2024-04-24T06:07:03.677Z,7.47
2024-04-24T06:10:07.709Z,6.90
2024-04-24T06:13:10.847Z,7.10
2024-04-24T06:16:14.756Z,7.32
2024-04-24T06:19:18.730Z,6.93
2024-04-24T06:22:22.307Z,6.15
2024-04-24T06:25:25.914Z,7.13
2024-04-24T06:28:29.003Z,6.23
2024-04-24T06:31:32.699Z,7.22
2024-04-24T06:34:36.297Z,6.60
2024-04-24T06:37:39.935Z,6.50
2024-04-24T06:40:43.552Z,5.60
2024-04-24T06:43:47.383Z,6.43
2024-04-24T06:46:51.035Z,5.50
2024-04-24T06:49:54.897Z,5.70
2024-04-24T06:52:58.568Z,5.70
2024-04-24T06:56:04.150Z,5.82
2024-04-24T06:59:07.570Z,5.60
2024-04-24T07:02:11.280Z,4.75
2024-04-24T07:05:15.080Z,6.03
2024-04-24T07:08:21.106Z,5.60
2024-04-24T07:11:24.840Z,6.75
2024-04-24T07:14:28.789Z,6.15
2024-04-24T07:17:32.631Z,5.35
2024-04-24T07:20:36.846Z,5.70
2024-04-24T07:23:40.334Z,6.05
2024-04-24T07:26:44.171Z,6.00
2024-04-24T07:29:47.773Z,6.07
2024-04-24T07:32:51.399Z,5.68
2024-04-24T07:35:58.423Z,6.13
2024-04-24T07:39:01.414Z,6.38
2024-04-24T07:42:04.651Z,6.50
2024-04-24T07:45:08.912Z,6.45
2024-04-24T07:48:12.897Z,5.97
2024-04-24T07:51:16.759Z,6.00
2024-04-24T07:54:20.672Z,6.22
2024-04-24T07:57:26.898Z,6.15
2024-04-24T08:00:30.544Z,6.23
2024-04-24T08:03:34.354Z,7.10
2024-04-24T08:06:38.126Z,6.45
2024-04-24T08:09:41.749Z,6.72
2024-04-24T08:12:45.480Z,6.82
2024-04-24T08:15:49.114Z,6.40
2024-04-24T08:18:52.728Z,6.60
2024-04-24T08:21:56.439Z,7.73
2024-04-24T08:24:59.770Z,8.35
2024-04-24T08:28:03.629Z,8.82
2024-04-24T08:31:07.488Z,8.63
2024-04-24T08:34:11.187Z,8.30
2024-04-24T08:37:14.975Z,7.45
2024-04-24T08:40:19.075Z,7.30
2024-04-24T08:43:22.707Z,7.63
2024-04-24T08:46:29.737Z,8.70
2024-04-24T08:49:36.570Z,9.73
2024-04-24T08:52:46.428Z,7.93
2024-04-24T08:55:52.423Z,18.40
2024-04-24T08:59:01.184Z,9.68
2024-04-24T09:02:10.208Z,7.87
2024-04-24T09:05:15.864Z,8.13
2024-04-24T09:08:25.735Z,8.32
2024-04-24T09:11:30.139Z,7.70
2024-04-24T09:14:34.762Z,8.23
2024-04-24T09:17:38.809Z,8.48
2024-04-24T09:20:45.390Z,7.78
2024-04-24T09:23:49.191Z,7.47
2024-04-24T09:26:52.959Z,7.20
2024-04-24T09:29:56.740Z,7.15
2024-04-24T09:33:00.064Z,7.00
2024-04-24T09:36:04.565Z,7.80
2024-04-24T09:39:09.067Z,7.65
2024-04-24T09:42:12.948Z,7.68
2024-04-24T09:45:16.577Z,8.38
2024-04-24T09:48:23.233Z,10.73
2024-04-24T09:51:28.820Z,10.65
2024-04-24T09:54:33.219Z,11.43
2024-04-24T09:57:40.397Z,11.32
2024-04-24T10:00:48.488Z,12.30
2024-04-24T10:03:56.038Z,12.10
2024-04-24T10:07:04.332Z,11.98
2024-04-24T10:10:10.489Z,11.55
2024-04-24T10:13:16.837Z,13.70
2024-04-24T10:16:21.187Z,12.55
2024-04-24T10:19:25.405Z,12.45
2024-04-24T10:22:29.496Z,13.27
2024-04-24T10:25:34.837Z,12.80
2024-04-24T10:28:38.670Z,12.85
2024-04-24T10:31:44.155Z,12.48
2024-04-24T10:34:49.725Z,13.50
2024-04-24T10:38:00.166Z,12.73
2024-04-24T10:41:04.830Z,14.00
2024-04-24T10:44:10.058Z,12.52
2024-04-24T10:47:16.801Z,13.50
2024-04-24T10:50:20.842Z,14.68
2024-04-24T10:53:24.816Z,11.65
2024-04-24T10:56:35.239Z,11.07
2024-04-24T10:59:46.525Z,9.35
2024-04-24T11:02:53.555Z,9.65
2024-04-24T11:06:09.734Z,8.63
2024-04-24T11:09:13.088Z,9.48
2024-04-24T11:12:16.160Z,8.43
2024-04-24T11:15:24.594Z,7.78
2024-04-24T11:18:28.474Z,8.63
2024-04-24T11:21:32.260Z,8.18
2024-04-24T11:24:37.367Z,7.15
2024-04-24T11:27:45.150Z,6.03
2024-04-24T11:30:50.545Z,5.65
2024-04-24T11:33:54.714Z,6.10
2024-04-24T11:36:58.543Z,5.47
2024-04-24T11:40:02.589Z,5.55
2024-04-24T11:43:06.300Z,6.82
2024-04-24T11:46:10.260Z,6.88
2024-04-24T11:49:14.417Z,5.53
2024-04-24T11:52:18.313Z,5.57
2024-04-24T11:55:21.847Z,5.30
2024-04-24T11:58:28.162Z,5.77
2024-04-24T12:01:33.919Z,6.05
2024-04-24T12:04:47.844Z,6.90
2024-04-24T12:07:51.546Z,6.40
2024-04-24T12:10:59.634Z,6.28
2024-04-24T12:14:03.294Z,6.55
2024-04-24T12:17:09.411Z,6.60
2024-04-24T12:20:13.796Z,6.07
2024-04-24T12:23:20.231Z,6.43
2024-04-24T12:26:23.327Z,5.70
2024-04-24T12:29:27.039Z,6.70
2024-04-24T12:32:30.910Z,6.63
2024-04-24T12:35:34.662Z,6.22
2024-04-24T12:38:37.780Z,6.28
2024-04-24T12:41:41.629Z,6.68
2024-04-24T12:44:45.214Z,6.60
2024-04-24T12:47:49.116Z,6.93
2024-04-24T12:50:53.038Z,6.30
2024-04-24T12:53:56.698Z,5.50
2024-04-24T12:57:00.230Z,6.15
2024-04-24T13:00:04.813Z,6.00
2024-04-24T13:03:08.506Z,5.90
2024-04-24T13:06:12.463Z,5.10
2024-04-24T13:09:16.009Z,5.22
2024-04-24T13:12:23.019Z,5.10
2024-04-24T13:15:27.523Z,5.40
2024-04-24T13:18:31.435Z,5.75
2024-04-24T13:21:34.984Z,5.20
2024-04-24T13:24:38.595Z,5.55
2024-04-24T13:27:42.400Z,5.25
2024-04-24T13:30:45.498Z,5.30
2024-04-24T13:33:49.343Z,5.80
2024-04-24T13:36:52.976Z,5.53
2024-04-24T13:39:56.662Z,6.18
2024-04-24T13:43:00.314Z,6.40
2024-04-24T13:46:05.090Z,5.85
2024-04-24T13:49:08.848Z,5.70
2024-04-24T13:52:12.649Z,5.00
2024-04-24T13:55:16.290Z,6.18
2024-04-24T13:58:20.053Z,5.18
2024-04-24T14:01:23.693Z,6.83
2024-04-24T14:04:45.393Z,5.22
2024-04-24T14:07:49.150Z,7.60
2024-04-24T14:10:52.930Z,8.00
2024-04-24T14:13:56.601Z,6.88
2024-04-24T14:17:00.390Z,6.45
2024-04-24T14:20:05.314Z,6.65
2024-04-24T14:23:08.962Z,6.83
2024-04-24T14:26:12.677Z,7.35
2024-04-24T14:29:16.472Z,9.15
2024-04-24T14:32:19.621Z,6.80
2024-04-24T14:35:23.306Z,7.88
2024-04-24T14:38:27.102Z,7.55
2024-04-24T14:41:30.911Z,6.93
2024-04-24T14:44:34.486Z,5.78
2024-04-24T14:47:38.228Z,6.53
2024-04-24T14:50:41.996Z,5.63
2024-04-24T14:53:45.069Z,5.90
2024-04-24T14:56:48.772Z,5.82
2024-04-24T14:59:52.433Z,6.00
2024-04-24T15:02:55.510Z,7.47
2024-04-24T15:06:05.379Z,6.72
2024-04-24T15:09:09.076Z,7.05
2024-04-24T15:12:12.804Z,6.22
2024-04-24T15:15:16.427Z,5.57
2024-04-24T15:18:21.143Z,5.55
2024-04-24T15:21:25.218Z,5.35
2024-04-24T15:24:28.913Z,5.13
2024-04-24T15:27:33.029Z,4.65
2024-04-24T15:30:36.657Z,5.55
2024-04-24T15:33:42.933Z,6.20
2024-04-24T15:36:47.450Z,6.35
2024-04-24T15:39:51.091Z,5.18
2024-04-24T15:42:54.700Z,5.57
2024-04-24T15:46:01.095Z,5.10
2024-04-24T15:49:04.857Z,5.65
2024-04-24T15:52:08.704Z,5.32
2024-04-24T15:55:13.292Z,5.70
2024-04-24T15:58:16.936Z,5.35
2024-04-24T16:01:20.611Z,6.30
2024-04-24T16:04:24.376Z,5.93
2024-04-24T16:07:28.030Z,6.97
2024-04-24T16:10:31.675Z,7.68
2024-04-24T16:13:35.261Z,6.70
2024-04-24T16:16:39.139Z,7.18
2024-04-24T16:19:42.839Z,7.72
2024-04-24T16:22:47.616Z,8.35
2024-04-24T16:25:52.294Z,7.13
2024-04-24T16:28:56.265Z,7.05
2024-04-24T16:32:00.220Z,7.05
2024-04-24T16:35:04.516Z,6.30
2024-04-24T16:38:08.417Z,6.90
2024-04-24T16:41:18.749Z,6.60
2024-04-24T16:44:22.554Z,7.22
2024-04-24T16:47:26.421Z,6.80
2024-04-24T16:50:30.711Z,6.90
2024-04-24T16:53:35.063Z,7.18
2024-04-24T16:56:38.938Z,7.83
2024-04-24T16:59:43.278Z,7.88
2024-04-24T17:02:47.463Z,7.38
2024-04-24T17:05:51.747Z,6.73
2024-04-24T17:08:55.770Z,8.68
2024-04-24T17:11:59.835Z,8.18
2024-04-24T17:15:04.118Z,6.88
2024-04-24T17:18:08.688Z,7.38
2024-04-24T17:21:13.548Z,6.07
2024-04-24T17:24:23.237Z,6.60
2024-04-24T17:27:29.246Z,6.27
2024-04-24T17:30:34.112Z,6.68
2024-04-24T17:33:40.426Z,7.18
2024-04-24T17:36:47.696Z,7.10
2024-04-24T17:39:52.359Z,9.40
2024-04-24T17:42:56.308Z,11.35
2024-04-24T17:46:04.548Z,13.32
2024-04-24T17:49:08.806Z,12.20
2024-04-24T17:52:13.029Z,18.20
2024-04-24T17:55:19.116Z,18.45
2024-04-24T17:58:26.831Z,13.73
2024-04-24T18:01:31.779Z,12.90
2024-04-24T18:04:38.228Z,11.40
2024-04-24T18:07:42.409Z,12.50
2024-04-24T18:10:48.016Z,12.77
2024-04-24T18:13:53.461Z,11.82
2024-04-24T18:16:58.610Z,12.15
2024-04-24T18:20:08.999Z,14.40
2024-04-24T18:23:15.276Z,14.90
2024-04-24T18:26:20.735Z,18.10
2024-04-24T18:29:26.568Z,20.37
2024-04-24T18:32:31.906Z,20.13
2024-04-24T18:35:41.090Z,27.98
2024-04-24T18:38:47.498Z,25.23
2024-04-24T18:41:54.467Z,30.08
2024-04-24T18:45:01.489Z,29.13
2024-04-24T18:48:14.191Z,26.77
2024-04-24T18:51:23.035Z,21.73
2024-04-24T18:54:28.951Z,17.38
2024-04-24T18:57:35.766Z,15.90
2024-04-24T19:00:41.911Z,14.17
2024-04-24T19:03:47.840Z,15.50
2024-04-24T19:06:52.962Z,12.95
2024-04-24T19:09:57.979Z,10.97
2024-04-24T19:13:02.854Z,10.50
2024-04-24T19:16:08.058Z,9.65
2024-04-24T19:19:16.074Z,12.40
2024-04-24T19:22:22.417Z,10.18
2024-04-24T19:25:28.910Z,10.10
2024-04-24T19:28:35.167Z,10.88
2024-04-24T19:31:40.629Z,12.70
2024-04-24T19:34:47.111Z,12.60
2024-04-24T19:37:54.403Z,12.48
2024-04-24T19:40:59.708Z,14.10
2024-04-24T19:44:08.230Z,15.55
2024-04-24T19:47:15.798Z,15.23
2024-04-24T19:50:20.265Z,13.02
2024-04-24T19:53:26.149Z,12.73
2024-04-24T19:56:34.694Z,12.65
2024-04-24T19:59:42.310Z,11.98
2024-04-24T20:02:47.835Z,12.17
2024-04-24T20:05:54.348Z,12.93
2024-04-24T20:09:00.366Z,14.07
2024-04-24T20:12:06.874Z,14.63
2024-04-24T20:15:12.006Z,16.95
2024-04-24T20:18:18.291Z,18.02
2024-04-24T20:21:24.356Z,15.57
2024-04-24T20:24:29.354Z,18.30
2024-04-24T20:27:34.030Z,14.38
2024-04-24T20:30:38.636Z,18.42
2024-04-24T20:33:42.973Z,21.03
2024-04-24T20:36:46.840Z,18.65
2024-04-24T20:39:50.651Z,15.25
2024-04-24T20:42:53.878Z,16.17
2024-04-24T20:45:57.483Z,14.88
2024-04-24T20:49:00.612Z,16.50
2024-04-24T20:52:04.335Z,15.75
2024-04-24T20:55:08.061Z,16.42
2024-04-24T20:58:11.646Z,14.70
2024-04-24T21:01:16.073Z,15.63
2024-04-24T21:04:19.816Z,13.43
2024-04-24T21:07:23.575Z,13.93
2024-04-24T21:10:27.249Z,13.07
2024-04-24T21:13:32.524Z,13.70
2024-04-24T21:16:36.116Z,12.30
2024-04-24T21:19:39.850Z,11.57
2024-04-24T21:22:42.883Z,12.45
2024-04-24T21:25:46.587Z,11.82
2024-04-24T21:28:50.239Z,11.18
2024-04-24T21:31:53.874Z,13.40
2024-04-24T21:34:56.986Z,11.37
2024-04-24T21:38:00.029Z,10.80
2024-04-24T21:41:05.328Z,10.20
2024-04-24T21:44:08.450Z,11.57
2024-04-24T21:47:12.277Z,10.45
2024-04-24T21:50:16.121Z,10.27
2024-04-24T21:53:19.760Z,12.18
2024-04-24T21:56:23.415Z,12.23
2024-04-24T21:59:28.156Z,12.73
2024-04-24T22:02:31.869Z,11.88
2024-04-24T22:05:36.016Z,10.03
2024-04-24T22:08:39.719Z,9.25
2024-04-24T22:11:49.004Z,9.30
2024-04-24T22:14:52.859Z,9.33
2024-04-24T22:18:01.416Z,9.38
2024-04-24T22:21:05.539Z,8.77
2024-04-24T22:24:09.242Z,9.07
2024-04-24T22:27:12.486Z,9.38
2024-04-24T22:30:16.516Z,8.45
2024-04-24T22:33:23.114Z,9.50
2024-04-24T22:36:26.179Z,10.40
2024-04-24T22:39:29.904Z,10.63
2024-04-24T22:42:33.506Z,10.55
2024-04-24T22:45:37.216Z,9.87
2024-04-24T22:48:40.315Z,9.57
2024-04-24T22:51:44.345Z,10.98
2024-04-24T22:54:47.910Z,9.50
2024-04-24T22:57:51.540Z,9.50
2024-04-24T23:00:55.305Z,10.48
2024-04-24T23:03:58.358Z,10.70
2024-04-24T23:07:01.489Z,9.30
2024-04-24T23:10:05.386Z,9.90
2024-04-24T23:13:09.119Z,9.93
2024-04-24T23:16:13.556Z,10.00
2024-04-24T23:19:17.272Z,11.20
2024-04-24T23:22:20.862Z,11.98
2024-04-24T23:25:24.625Z,12.43
2024-04-24T23:28:28.333Z,13.40
2024-04-24T23:31:32.119Z,14.85
2024-04-24T23:34:35.375Z,14.75
2024-04-24T23:37:38.966Z,13.60
2024-04-24T23:40:42.645Z,16.30
2024-04-24T23:43:47.905Z,13.43
2024-04-24T23:46:51.686Z,14.27
2024-04-24T23:49:54.704Z,14.00
2024-04-24T23:52:58.362Z,15.82
2024-04-24T23:56:03.121Z,19.52
2024-04-24T23:59:06.960Z,14.43
